sensor_id;sensor_type;location;lat;lon;timestamp;P1;durP1;ratioP1;P2;durP2;ratioP2
58302;SDS011;44109;52.398;7.024;2023-07-29T00:01:41;6.90;;;4.10;;
58302;SDS011;44109;52.398;7.024;2023-07-29T00:04:09;7.13;;;3.97;;
58302;SDS011;44109;52.398;7.024;2023-07-29T00:06:36;6.68;;;3.30;;
58302;SDS011;44109;52.398;7.024;2023-07-29T00:09:04;9.55;;;3.80;;
58302;SDS011;44109;52.398;7.024;2023-07-29T00:11:32;5.18;;;3.08;;
58302;SDS011;44109;52.398;7.024;2023-07-29T00:14:01;6.55;;;3.33;;
58302;SDS011;44109;52.398;7.024;2023-07-29T00:16:29;11.60;;;3.60;;
58302;SDS011;44109;52.398;7.024;2023-07-29T00:18:56;8.05;;;3.90;;
58302;SDS011;44109;52.398;7.024;2023-07-29T00:21:24;8.07;;;4.07;;
58302;SDS011;44109;52.398;7.024;2023-07-29T00:23:52;7.00;;;3.40;;
58302;SDS011;44109;52.398;7.024;2023-07-29T00:26:20;7.60;;;3.83;;
58302;SDS011;44109;52.398;7.024;2023-07-29T00:28:47;5.22;;;2.88;;
58302;SDS011;44109;52.398;7.024;2023-07-29T00:31:16;6.63;;;4.18;;
58302;SDS011;44109;52.398;7.024;2023-07-29T00:33:44;5.07;;;3.00;;
58302;SDS011;44109;52.398;7.024;2023-07-29T00:36:11;5.18;;;3.33;;
58302;SDS011;44109;52.398;7.024;2023-07-29T00:38:39;6.57;;;3.50;;
58302;SDS011;44109;52.398;7.024;2023-07-29T00:41:06;6.63;;;3.83;;
58302;SDS011;44109;52.398;7.024;2023-07-29T00:43:38;7.65;;;3.17;;
58302;SDS011;44109;52.398;7.024;2023-07-29T00:46:07;5.32;;;3.35;;
58302;SDS011;44109;52.398;7.024;2023-07-29T00:48:40;5.85;;;3.47;;
58302;SDS011;44109;52.398;7.024;2023-07-29T00:51:07;3.90;;;3.03;;
58302;SDS011;44109;52.398;7.024;2023-07-29T00:53:36;3.53;;;2.78;;
58302;SDS011;44109;52.398;7.024;2023-07-29T00:56:03;5.00;;;3.15;;
58302;SDS011;44109;52.398;7.024;2023-07-29T00:58:31;5.95;;;3.38;;
58302;SDS011;44109;52.398;7.024;2023-07-29T01:00:59;5.97;;;2.85;;
58302;SDS011;44109;52.398;7.024;2023-07-29T01:03:27;4.97;;;3.08;;
58302;SDS011;44109;52.398;7.024;2023-07-29T01:05:59;6.97;;;3.13;;
58302;SDS011;44109;52.398;7.024;2023-07-29T01:11:22;5.65;;;2.90;;
58302;SDS011;44109;52.398;7.024;2023-07-29T01:14:08;4.50;;;2.88;;
58302;SDS011;44109;52.398;7.024;2023-07-29T01:16:53;6.47;;;3.50;;
58302;SDS011;44109;52.398;7.024;2023-07-29T01:19:34;5.00;;;3.13;;
58302;SDS011;44109;52.398;7.024;2023-07-29T01:22:16;4.38;;;2.65;;
58302;SDS011;44109;52.398;7.024;2023-07-29T01:24:47;5.45;;;2.58;;
58302;SDS011;44109;52.398;7.024;2023-07-29T01:27:15;5.40;;;2.95;;
58302;SDS011;44109;52.398;7.024;2023-07-29T01:29:42;4.68;;;2.65;;
58302;SDS011;44109;52.398;7.024;2023-07-29T01:32:10;5.70;;;2.67;;
58302;SDS011;44109;52.398;7.024;2023-07-29T01:34:47;4.53;;;2.83;;
58302;SDS011;44109;52.398;7.024;2023-07-29T01:37:25;5.63;;;2.90;;
58302;SDS011;44109;52.398;7.024;2023-07-29T01:39:58;6.72;;;3.47;;
58302;SDS011;44109;52.398;7.024;2023-07-29T01:42:28;4.25;;;2.70;;
58302;SDS011;44109;52.398;7.024;2023-07-29T01:44:58;5.60;;;3.15;;
58302;SDS011;44109;52.398;7.024;2023-07-29T01:47:26;5.18;;;2.95;;
58302;SDS011;44109;52.398;7.024;2023-07-29T01:49:54;5.78;;;3.53;;
58302;SDS011;44109;52.398;7.024;2023-07-29T01:52:21;5.93;;;2.88;;
58302;SDS011;44109;52.398;7.024;2023-07-29T01:54:49;5.55;;;3.25;;
58302;SDS011;44109;52.398;7.024;2023-07-29T01:57:18;5.68;;;3.47;;
58302;SDS011;44109;52.398;7.024;2023-07-29T01:59:46;7.70;;;3.03;;
58302;SDS011;44109;52.398;7.024;2023-07-29T02:02:13;5.32;;;3.15;;
58302;SDS011;44109;52.398;7.024;2023-07-29T02:04:41;4.70;;;2.83;;
58302;SDS011;44109;52.398;7.024;2023-07-29T02:07:08;5.20;;;3.42;;
58302;SDS011;44109;52.398;7.024;2023-07-29T02:09:36;6.10;;;3.40;;
58302;SDS011;44109;52.398;7.024;2023-07-29T02:12:04;7.18;;;3.42;;
58302;SDS011;44109;52.398;7.024;2023-07-29T02:14:34;6.70;;;3.50;;
58302;SDS011;44109;52.398;7.024;2023-07-29T02:17:02;6.25;;;2.95;;
58302;SDS011;44109;52.398;7.024;2023-07-29T02:19:30;6.90;;;3.20;;
58302;SDS011;44109;52.398;7.024;2023-07-29T02:21:57;7.45;;;2.35;;
58302;SDS011;44109;52.398;7.024;2023-07-29T02:24:25;6.40;;;2.80;;
58302;SDS011;44109;52.398;7.024;2023-07-29T02:26:52;8.90;;;4.22;;
58302;SDS011;44109;52.398;7.024;2023-07-29T02:29:20;7.15;;;2.97;;
58302;SDS011;44109;52.398;7.024;2023-07-29T02:31:49;5.30;;;3.53;;
58302;SDS011;44109;52.398;7.024;2023-07-29T02:34:17;3.97;;;3.10;;
58302;SDS011;44109;52.398;7.024;2023-07-29T02:36:44;4.85;;;2.65;;
58302;SDS011;44109;52.398;7.024;2023-07-29T02:39:12;5.47;;;2.13;;
58302;SDS011;44109;52.398;7.024;2023-07-29T02:41:40;5.00;;;2.30;;
58302;SDS011;44109;52.398;7.024;2023-07-29T02:44:07;9.45;;;3.83;;
58302;SDS011;44109;52.398;7.024;2023-07-29T02:46:35;4.38;;;2.40;;
58302;SDS011;44109;52.398;7.024;2023-07-29T02:49:04;3.72;;;2.30;;
58302;SDS011;44109;52.398;7.024;2023-07-29T02:51:32;3.28;;;2.15;;
58302;SDS011;44109;52.398;7.024;2023-07-29T02:54:00;4.35;;;2.80;;
58302;SDS011;44109;52.398;7.024;2023-07-29T02:56:27;4.60;;;2.65;;
58302;SDS011;44109;52.398;7.024;2023-07-29T02:58:56;3.55;;;2.40;;
58302;SDS011;44109;52.398;7.024;2023-07-29T03:01:24;6.22;;;2.85;;
58302;SDS011;44109;52.398;7.024;2023-07-29T03:03:51;5.10;;;2.38;;
58302;SDS011;44109;52.398;7.024;2023-07-29T03:06:21;3.80;;;2.33;;
58302;SDS011;44109;52.398;7.024;2023-07-29T03:08:48;5.32;;;2.65;;
58302;SDS011;44109;52.398;7.024;2023-07-29T03:11:16;5.05;;;2.70;;
58302;SDS011;44109;52.398;7.024;2023-07-29T03:13:44;5.80;;;3.13;;
58302;SDS011;44109;52.398;7.024;2023-07-29T03:16:12;6.38;;;3.42;;
58302;SDS011;44109;52.398;7.024;2023-07-29T03:18:42;5.28;;;3.75;;
58302;SDS011;44109;52.398;7.024;2023-07-29T03:21:11;7.40;;;3.53;;
58302;SDS011;44109;52.398;7.024;2023-07-29T03:23:40;6.80;;;3.60;;
58302;SDS011;44109;52.398;7.024;2023-07-29T03:26:07;5.18;;;3.30;;
58302;SDS011;44109;52.398;7.024;2023-07-29T03:28:37;11.85;;;3.97;;
58302;SDS011;44109;52.398;7.024;2023-07-29T03:31:09;4.88;;;3.35;;
58302;SDS011;44109;52.398;7.024;2023-07-29T03:33:37;5.50;;;3.22;;
58302;SDS011;44109;52.398;7.024;2023-07-29T03:36:05;4.78;;;2.95;;
58302;SDS011;44109;52.398;7.024;2023-07-29T03:38:32;5.05;;;3.08;;
58302;SDS011;44109;52.398;7.024;2023-07-29T03:41:02;4.35;;;3.15;;
58302;SDS011;44109;52.398;7.024;2023-07-29T03:43:30;6.43;;;3.58;;
58302;SDS011;44109;52.398;7.024;2023-07-29T03:45:57;6.70;;;3.95;;
58302;SDS011;44109;52.398;7.024;2023-07-29T03:48:25;6.65;;;3.38;;
58302;SDS011;44109;52.398;7.024;2023-07-29T03:50:53;9.48;;;3.45;;
58302;SDS011;44109;52.398;7.024;2023-07-29T03:53:21;9.27;;;4.35;;
58302;SDS011;44109;52.398;7.024;2023-07-29T03:55:49;6.43;;;3.65;;
58302;SDS011;44109;52.398;7.024;2023-07-29T03:58:18;6.22;;;4.05;;
58302;SDS011;44109;52.398;7.024;2023-07-29T04:00:46;4.70;;;2.95;;
58302;SDS011;44109;52.398;7.024;2023-07-29T04:03:13;4.80;;;3.05;;
58302;SDS011;44109;52.398;7.024;2023-07-29T04:05:41;6.20;;;3.15;;
58302;SDS011;44109;52.398;7.024;2023-07-29T04:08:09;6.13;;;3.80;;
58302;SDS011;44109;52.398;7.024;2023-07-29T04:10:37;5.95;;;3.55;;
58302;SDS011;44109;52.398;7.024;2023-07-29T04:13:04;5.43;;;2.58;;
58302;SDS011;44109;52.398;7.024;2023-07-29T04:15:33;6.22;;;3.25;;
58302;SDS011;44109;52.398;7.024;2023-07-29T04:18:01;4.90;;;3.22;;
58302;SDS011;44109;52.398;7.024;2023-07-29T04:20:28;5.72;;;3.25;;
58302;SDS011;44109;52.398;7.024;2023-07-29T04:22:56;6.55;;;3.00;;
58302;SDS011;44109;52.398;7.024;2023-07-29T04:25:24;6.93;;;3.45;;
58302;SDS011;44109;52.398;7.024;2023-07-29T04:27:51;5.10;;;3.22;;
58302;SDS011;44109;52.398;7.024;2023-07-29T04:30:19;6.72;;;3.25;;
58302;SDS011;44109;52.398;7.024;2023-07-29T04:32:48;6.22;;;3.75;;
58302;SDS011;44109;52.398;7.024;2023-07-29T04:35:16;7.28;;;3.65;;
58302;SDS011;44109;52.398;7.024;2023-07-29T04:37:43;4.95;;;3.38;;
58302;SDS011;44109;52.398;7.024;2023-07-29T04:40:14;4.82;;;3.00;;
58302;SDS011;44109;52.398;7.024;2023-07-29T04:42:41;6.28;;;3.15;;
58302;SDS011;44109;52.398;7.024;2023-07-29T04:45:09;4.50;;;2.67;;
58302;SDS011;44109;52.398;7.024;2023-07-29T04:47:37;5.65;;;3.28;;
58302;SDS011;44109;52.398;7.024;2023-07-29T04:50:07;3.90;;;2.90;;
58302;SDS011;44109;52.398;7.024;2023-07-29T04:52:36;5.10;;;3.22;;
58302;SDS011;44109;52.398;7.024;2023-07-29T04:55:03;4.88;;;2.72;;
58302;SDS011;44109;52.398;7.024;2023-07-29T04:57:32;10.18;;;3.15;;
58302;SDS011;44109;52.398;7.024;2023-07-29T04:59:59;4.47;;;2.72;;
58302;SDS011;44109;52.398;7.024;2023-07-29T05:02:27;4.28;;;3.05;;
58302;SDS011;44109;52.398;7.024;2023-07-29T05:04:54;5.35;;;2.97;;
58302;SDS011;44109;52.398;7.024;2023-07-29T05:07:23;5.85;;;3.28;;
58302;SDS011;44109;52.398;7.024;2023-07-29T05:09:51;3.97;;;2.92;;
58302;SDS011;44109;52.398;7.024;2023-07-29T05:12:18;5.18;;;3.33;;
58302;SDS011;44109;52.398;7.024;2023-07-29T05:14:46;4.65;;;2.95;;
58302;SDS011;44109;52.398;7.024;2023-07-29T05:17:14;3.53;;;2.58;;
58302;SDS011;44109;52.398;7.024;2023-07-29T05:19:41;4.10;;;2.78;;
58302;SDS011;44109;52.398;7.024;2023-07-29T05:22:09;5.93;;;2.88;;
58302;SDS011;44109;52.398;7.024;2023-07-29T05:24:38;5.53;;;2.92;;
58302;SDS011;44109;52.398;7.024;2023-07-29T05:27:06;6.55;;;2.58;;
58302;SDS011;44109;52.398;7.024;2023-07-29T05:29:34;4.63;;;2.50;;
58302;SDS011;44109;52.398;7.024;2023-07-29T05:32:02;4.95;;;2.67;;
58302;SDS011;44109;52.398;7.024;2023-07-29T05:34:30;6.65;;;2.78;;
58302;SDS011;44109;52.398;7.024;2023-07-29T05:36:57;4.95;;;2.78;;
58302;SDS011;44109;52.398;7.024;2023-07-29T05:39:25;5.45;;;3.08;;
58302;SDS011;44109;52.398;7.024;2023-07-29T05:41:54;6.22;;;3.42;;
58302;SDS011;44109;52.398;7.024;2023-07-29T05:44:22;3.85;;;2.47;;
58302;SDS011;44109;52.398;7.024;2023-07-29T05:46:59;4.40;;;2.50;;
58302;SDS011;44109;52.398;7.024;2023-07-29T05:49:27;4.80;;;2.38;;
58302;SDS011;44109;52.398;7.024;2023-07-29T05:51:55;4.25;;;2.30;;
58302;SDS011;44109;52.398;7.024;2023-07-29T05:54:22;7.65;;;2.60;;
58302;SDS011;44109;52.398;7.024;2023-07-29T05:56:50;5.13;;;3.03;;
58302;SDS011;44109;52.398;7.024;2023-07-29T05:59:19;8.65;;;4.07;;
58302;SDS011;44109;52.398;7.024;2023-07-29T06:01:46;8.00;;;3.97;;
58302;SDS011;44109;52.398;7.024;2023-07-29T06:04:14;5.05;;;2.65;;
58302;SDS011;44109;52.398;7.024;2023-07-29T06:06:42;7.53;;;3.67;;
58302;SDS011;44109;52.398;7.024;2023-07-29T06:09:09;8.20;;;3.95;;
58302;SDS011;44109;52.398;7.024;2023-07-29T06:11:37;5.85;;;3.35;;
58302;SDS011;44109;52.398;7.024;2023-07-29T06:14:04;6.45;;;3.88;;
58302;SDS011;44109;52.398;7.024;2023-07-29T06:16:33;6.40;;;3.30;;
58302;SDS011;44109;52.398;7.024;2023-07-29T06:19:01;7.30;;;2.83;;
58302;SDS011;44109;52.398;7.024;2023-07-29T06:21:28;4.22;;;3.03;;
58302;SDS011;44109;52.398;7.024;2023-07-29T06:23:56;5.07;;;3.25;;
58302;SDS011;44109;52.398;7.024;2023-07-29T06:26:24;4.97;;;3.28;;
58302;SDS011;44109;52.398;7.024;2023-07-29T06:28:51;5.93;;;3.53;;
58302;SDS011;44109;52.398;7.024;2023-07-29T06:31:20;5.60;;;3.85;;
58302;SDS011;44109;52.398;7.024;2023-07-29T06:33:49;8.10;;;3.85;;
58302;SDS011;44109;52.398;7.024;2023-07-29T06:36:17;5.20;;;2.95;;
58302;SDS011;44109;52.398;7.024;2023-07-29T06:38:44;5.88;;;2.78;;
58302;SDS011;44109;52.398;7.024;2023-07-29T06:41:12;8.10;;;3.33;;
58302;SDS011;44109;52.398;7.024;2023-07-29T06:43:39;5.75;;;2.95;;
58302;SDS011;44109;52.398;7.024;2023-07-29T06:46:07;4.95;;;3.38;;
58302;SDS011;44109;52.398;7.024;2023-07-29T06:48:35;5.10;;;2.80;;
58302;SDS011;44109;52.398;7.024;2023-07-29T06:51:04;5.30;;;2.50;;
58302;SDS011;44109;52.398;7.024;2023-07-29T06:53:31;5.25;;;3.17;;
58302;SDS011;44109;52.398;7.024;2023-07-29T06:55:59;6.78;;;3.42;;
58302;SDS011;44109;52.398;7.024;2023-07-29T06:58:27;5.75;;;2.97;;
58302;SDS011;44109;52.398;7.024;2023-07-29T07:00:54;3.45;;;2.45;;
58302;SDS011;44109;52.398;7.024;2023-07-29T07:03:22;5.63;;;3.20;;
58302;SDS011;44109;52.398;7.024;2023-07-29T07:05:49;4.20;;;2.75;;
58302;SDS011;44109;52.398;7.024;2023-07-29T07:08:19;5.97;;;3.10;;
58302;SDS011;44109;52.398;7.024;2023-07-29T07:10:47;6.75;;;3.00;;
58302;SDS011;44109;52.398;7.024;2023-07-29T07:13:14;5.40;;;2.85;;
58302;SDS011;44109;52.398;7.024;2023-07-29T07:15:42;7.00;;;3.47;;
58302;SDS011;44109;52.398;7.024;2023-07-29T07:18:10;6.65;;;3.70;;
58302;SDS011;44109;52.398;7.024;2023-07-29T07:20:38;6.18;;;3.08;;
58302;SDS011;44109;52.398;7.024;2023-07-29T07:23:06;6.00;;;3.05;;
58302;SDS011;44109;52.398;7.024;2023-07-29T07:25:38;4.88;;;2.83;;
58302;SDS011;44109;52.398;7.024;2023-07-29T07:28:06;6.18;;;2.80;;
58302;SDS011;44109;52.398;7.024;2023-07-29T07:30:33;4.75;;;2.72;;
58302;SDS011;44109;52.398;7.024;2023-07-29T07:33:01;4.07;;;2.45;;
58302;SDS011;44109;52.398;7.024;2023-07-29T07:35:29;4.43;;;2.70;;
58302;SDS011;44109;52.398;7.024;2023-07-29T07:37:56;3.67;;;2.40;;
58302;SDS011;44109;52.398;7.024;2023-07-29T07:40:24;3.97;;;2.47;;
58302;SDS011;44109;52.398;7.024;2023-07-29T07:42:53;4.03;;;2.40;;
58302;SDS011;44109;52.398;7.024;2023-07-29T07:45:21;3.70;;;2.10;;
58302;SDS011;44109;52.398;7.024;2023-07-29T07:47:48;5.50;;;2.35;;
58302;SDS011;44109;52.398;7.024;2023-07-29T07:50:18;6.50;;;1.85;;
58302;SDS011;44109;52.398;7.024;2023-07-29T07:52:46;5.32;;;2.60;;
58302;SDS011;44109;52.398;7.024;2023-07-29T07:55:14;3.38;;;2.38;;
58302;SDS011;44109;52.398;7.024;2023-07-29T07:57:41;4.25;;;2.65;;
58302;SDS011;44109;52.398;7.024;2023-07-29T08:00:11;3.17;;;1.90;;
58302;SDS011;44109;52.398;7.024;2023-07-29T08:02:43;5.40;;;3.00;;
58302;SDS011;44109;52.398;7.024;2023-07-29T08:05:11;4.43;;;2.42;;
58302;SDS011;44109;52.398;7.024;2023-07-29T08:07:38;7.55;;;2.80;;
58302;SDS011;44109;52.398;7.024;2023-07-29T08:10:07;4.22;;;2.20;;
58302;SDS011;44109;52.398;7.024;2023-07-29T08:12:35;4.55;;;1.83;;
58302;SDS011;44109;52.398;7.024;2023-07-29T08:15:02;6.28;;;2.92;;
58302;SDS011;44109;52.398;7.024;2023-07-29T08:17:33;2.67;;;1.83;;
58302;SDS011;44109;52.398;7.024;2023-07-29T08:20:00;2.80;;;1.83;;
58302;SDS011;44109;52.398;7.024;2023-07-29T08:22:28;2.30;;;1.30;;
58302;SDS011;44109;52.398;7.024;2023-07-29T08:24:56;4.95;;;1.85;;
58302;SDS011;44109;52.398;7.024;2023-07-29T08:27:24;3.28;;;2.08;;
58302;SDS011;44109;52.398;7.024;2023-07-29T08:29:53;2.67;;;1.33;;
58302;SDS011;44109;52.398;7.024;2023-07-29T08:32:21;2.65;;;1.45;;
58302;SDS011;44109;52.398;7.024;2023-07-29T08:34:50;4.40;;;2.50;;
58302;SDS011;44109;52.398;7.024;2023-07-29T08:37:17;2.30;;;1.50;;
58302;SDS011;44109;52.398;7.024;2023-07-29T08:39:45;2.95;;;1.77;;
58302;SDS011;44109;52.398;7.024;2023-07-29T08:42:12;3.30;;;1.73;;
58302;SDS011;44109;52.398;7.024;2023-07-29T08:44:44;3.30;;;2.05;;
58302;SDS011;44109;52.398;7.024;2023-07-29T08:47:14;2.75;;;1.60;;
58302;SDS011;44109;52.398;7.024;2023-07-29T08:49:43;2.33;;;1.40;;
58302;SDS011;44109;52.398;7.024;2023-07-29T08:52:14;3.00;;;1.45;;
58302;SDS011;44109;52.398;7.024;2023-07-29T08:54:42;2.70;;;1.42;;
58302;SDS011;44109;52.398;7.024;2023-07-29T08:57:10;3.72;;;1.65;;
58302;SDS011;44109;52.398;7.024;2023-07-29T08:59:38;2.95;;;1.55;;
58302;SDS011;44109;52.398;7.024;2023-07-29T09:02:07;2.88;;;1.20;;
58302;SDS011;44109;52.398;7.024;2023-07-29T09:04:34;4.88;;;1.80;;
58302;SDS011;44109;52.398;7.024;2023-07-29T09:07:02;2.90;;;1.90;;
58302;SDS011;44109;52.398;7.024;2023-07-29T09:09:34;4.82;;;1.88;;
58302;SDS011;44109;52.398;7.024;2023-07-29T09:12:01;1.83;;;1.02;;
58302;SDS011;44109;52.398;7.024;2023-07-29T09:14:30;2.03;;;1.20;;
58302;SDS011;44109;52.398;7.024;2023-07-29T09:16:57;3.67;;;1.73;;
58302;SDS011;44109;52.398;7.024;2023-07-29T09:19:26;2.85;;;1.20;;
58302;SDS011;44109;52.398;7.024;2023-07-29T09:21:54;2.60;;;1.50;;
58302;SDS011;44109;52.398;7.024;2023-07-29T09:24:22;2.33;;;1.13;;
58302;SDS011;44109;52.398;7.024;2023-07-29T09:26:51;1.88;;;1.13;;
58302;SDS011;44109;52.398;7.024;2023-07-29T09:29:21;1.73;;;0.88;;
58302;SDS011;44109;52.398;7.024;2023-07-29T09:31:50;1.38;;;0.88;;
58302;SDS011;44109;52.398;7.024;2023-07-29T09:34:18;2.05;;;1.27;;
58302;SDS011;44109;52.398;7.024;2023-07-29T09:36:46;3.15;;;1.15;;
58302;SDS011;44109;52.398;7.024;2023-07-29T09:39:13;2.03;;;1.25;;
58302;SDS011;44109;52.398;7.024;2023-07-29T09:41:41;2.05;;;1.20;;
58302;SDS011;44109;52.398;7.024;2023-07-29T09:44:16;3.63;;;1.00;;
58302;SDS011;44109;52.398;7.024;2023-07-29T09:46:45;4.38;;;1.38;;
58302;SDS011;44109;52.398;7.024;2023-07-29T09:49:13;3.67;;;1.30;;
58302;SDS011;44109;52.398;7.024;2023-07-29T09:51:41;1.60;;;1.00;;
58302;SDS011;44109;52.398;7.024;2023-07-29T09:54:09;2.45;;;1.40;;
58302;SDS011;44109;52.398;7.024;2023-07-29T09:56:39;2.80;;;1.70;;
58302;SDS011;44109;52.398;7.024;2023-07-29T09:59:10;2.17;;;1.10;;
58302;SDS011;44109;52.398;7.024;2023-07-29T10:01:39;2.00;;;1.30;;
58302;SDS011;44109;52.398;7.024;2023-07-29T10:04:08;5.13;;;1.77;;
58302;SDS011;44109;52.398;7.024;2023-07-29T10:06:37;3.13;;;1.85;;
58302;SDS011;44109;52.398;7.024;2023-07-29T10:09:06;2.13;;;1.60;;
58302;SDS011;44109;52.398;7.024;2023-07-29T10:11:34;3.38;;;2.08;;
58302;SDS011;44109;52.398;7.024;2023-07-29T10:14:04;3.03;;;1.48;;
58302;SDS011;44109;52.398;7.024;2023-07-29T10:16:32;3.17;;;1.73;;
58302;SDS011;44109;52.398;7.024;2023-07-29T10:19:04;2.17;;;1.60;;
58302;SDS011;44109;52.398;7.024;2023-07-29T10:21:34;3.40;;;1.73;;
58302;SDS011;44109;52.398;7.024;2023-07-29T10:24:06;3.63;;;1.88;;
58302;SDS011;44109;52.398;7.024;2023-07-29T10:26:42;3.00;;;1.92;;
58302;SDS011;44109;52.398;7.024;2023-07-29T10:29:13;2.83;;;1.73;;
58302;SDS011;44109;52.398;7.024;2023-07-29T10:31:45;4.40;;;1.75;;
58302;SDS011;44109;52.398;7.024;2023-07-29T10:34:15;5.75;;;1.90;;
58302;SDS011;44109;52.398;7.024;2023-07-29T10:36:46;3.70;;;1.67;;
58302;SDS011;44109;52.398;7.024;2023-07-29T10:39:16;3.47;;;1.40;;
58302;SDS011;44109;52.398;7.024;2023-07-29T10:41:56;4.40;;;1.92;;
58302;SDS011;44109;52.398;7.024;2023-07-29T10:47:17;2.72;;;1.42;;
58302;SDS011;44109;52.398;7.024;2023-07-29T10:49:49;3.63;;;1.80;;
58302;SDS011;44109;52.398;7.024;2023-07-29T10:55:23;2.22;;;1.35;;
58302;SDS011;44109;52.398;7.024;2023-07-29T10:58:04;5.03;;;1.70;;
58302;SDS011;44109;52.398;7.024;2023-07-29T11:00:35;2.75;;;1.30;;
58302;SDS011;44109;52.398;7.024;2023-07-29T11:03:05;2.38;;;1.58;;
58302;SDS011;44109;52.398;7.024;2023-07-29T11:05:48;4.95;;;1.77;;
58302;SDS011;44109;52.398;7.024;2023-07-29T11:08:18;3.97;;;2.05;;
58302;SDS011;44109;52.398;7.024;2023-07-29T11:10:58;3.58;;;2.10;;
58302;SDS011;44109;52.398;7.024;2023-07-29T11:13:30;3.15;;;1.92;;
58302;SDS011;44109;52.398;7.024;2023-07-29T11:16:00;3.08;;;1.85;;
58302;SDS011;44109;52.398;7.024;2023-07-29T11:18:30;3.95;;;1.77;;
58302;SDS011;44109;52.398;7.024;2023-07-29T11:21:01;2.88;;;1.60;;
58302;SDS011;44109;52.398;7.024;2023-07-29T11:23:31;2.97;;;1.98;;
58302;SDS011;44109;52.398;7.024;2023-07-29T11:26:01;1.95;;;1.45;;
58302;SDS011;44109;52.398;7.024;2023-07-29T11:28:30;3.28;;;1.85;;
58302;SDS011;44109;52.398;7.024;2023-07-29T11:31:04;2.75;;;1.85;;
58302;SDS011;44109;52.398;7.024;2023-07-29T11:33:32;2.83;;;1.75;;
58302;SDS011;44109;52.398;7.024;2023-07-29T11:36:01;2.97;;;1.70;;
58302;SDS011;44109;52.398;7.024;2023-07-29T11:38:29;2.25;;;1.55;;
58302;SDS011;44109;52.398;7.024;2023-07-29T11:41:02;3.20;;;1.90;;
58302;SDS011;44109;52.398;7.024;2023-07-29T11:43:34;5.45;;;1.48;;
58302;SDS011;44109;52.398;7.024;2023-07-29T11:46:02;2.67;;;2.03;;
58302;SDS011;44109;52.398;7.024;2023-07-29T11:48:31;2.75;;;1.50;;
58302;SDS011;44109;52.398;7.024;2023-07-29T11:51:01;2.72;;;1.95;;
58302;SDS011;44109;52.398;7.024;2023-07-29T11:53:30;2.20;;;1.75;;
58302;SDS011;44109;52.398;7.024;2023-07-29T11:55:58;2.75;;;2.00;;
58302;SDS011;44109;52.398;7.024;2023-07-29T11:58:26;2.28;;;1.50;;
58302;SDS011;44109;52.398;7.024;2023-07-29T12:00:54;2.80;;;1.65;;
58302;SDS011;44109;52.398;7.024;2023-07-29T12:03:22;1.65;;;1.50;;
58302;SDS011;44109;52.398;7.024;2023-07-29T12:05:50;1.50;;;1.15;;
58302;SDS011;44109;52.398;7.024;2023-07-29T12:08:19;1.73;;;1.45;;
58302;SDS011;44109;52.398;7.024;2023-07-29T12:10:47;2.65;;;1.73;;
58302;SDS011;44109;52.398;7.024;2023-07-29T12:13:16;2.45;;;1.50;;
58302;SDS011;44109;52.398;7.024;2023-07-29T12:15:43;5.32;;;2.55;;
58302;SDS011;44109;52.398;7.024;2023-07-29T12:18:11;3.30;;;2.35;;
58302;SDS011;44109;52.398;7.024;2023-07-29T12:20:39;4.68;;;1.80;;
58302;SDS011;44109;52.398;7.024;2023-07-29T12:23:08;3.42;;;1.90;;
58302;SDS011;44109;52.398;7.024;2023-07-29T12:25:37;2.85;;;1.83;;
58302;SDS011;44109;52.398;7.024;2023-07-29T12:28:05;3.33;;;1.65;;
58302;SDS011;44109;52.398;7.024;2023-07-29T12:30:33;2.80;;;1.60;;
58302;SDS011;44109;52.398;7.024;2023-07-29T12:33:01;2.47;;;1.38;;
58302;SDS011;44109;52.398;7.024;2023-07-29T12:35:36;2.60;;;1.80;;
58302;SDS011;44109;52.398;7.024;2023-07-29T12:38:04;4.40;;;1.45;;
58302;SDS011;44109;52.398;7.024;2023-07-29T12:40:33;2.47;;;1.35;;
58302;SDS011;44109;52.398;7.024;2023-07-29T12:43:08;3.88;;;2.10;;
58302;SDS011;44109;52.398;7.024;2023-07-29T12:45:36;1.85;;;1.38;;
58302;SDS011;44109;52.398;7.024;2023-07-29T12:48:05;2.38;;;1.60;;
58302;SDS011;44109;52.398;7.024;2023-07-29T12:50:33;2.67;;;1.23;;
58302;SDS011;44109;52.398;7.024;2023-07-29T12:53:01;2.15;;;1.25;;
58302;SDS011;44109;52.398;7.024;2023-07-29T12:55:28;1.92;;;1.42;;
58302;SDS011;44109;52.398;7.024;2023-07-29T12:57:57;1.95;;;1.00;;
58302;SDS011;44109;52.398;7.024;2023-07-29T13:00:25;1.55;;;1.05;;
58302;SDS011;44109;52.398;7.024;2023-07-29T13:02:52;3.08;;;1.23;;
58302;SDS011;44109;52.398;7.024;2023-07-29T13:05:20;2.33;;;1.38;;
58302;SDS011;44109;52.398;7.024;2023-07-29T13:07:48;1.50;;;1.00;;
58302;SDS011;44109;52.398;7.024;2023-07-29T13:10:15;5.47;;;1.05;;
58302;SDS011;44109;52.398;7.024;2023-07-29T13:12:43;2.20;;;1.10;;
58302;SDS011;44109;52.398;7.024;2023-07-29T13:15:12;2.38;;;1.27;;
58302;SDS011;44109;52.398;7.024;2023-07-29T13:17:39;1.48;;;0.90;;
58302;SDS011;44109;52.398;7.024;2023-07-29T13:20:08;2.35;;;1.13;;
58302;SDS011;44109;52.398;7.024;2023-07-29T13:22:36;5.00;;;1.23;;
58302;SDS011;44109;52.398;7.024;2023-07-29T13:25:03;3.30;;;1.27;;
58302;SDS011;44109;52.398;7.024;2023-07-29T13:27:31;2.03;;;0.95;;
58302;SDS011;44109;52.398;7.024;2023-07-29T13:29:59;2.10;;;1.33;;
58302;SDS011;44109;52.398;7.024;2023-07-29T13:32:28;1.80;;;1.20;;
58302;SDS011;44109;52.398;7.024;2023-07-29T13:34:56;1.40;;;1.00;;
58302;SDS011;44109;52.398;7.024;2023-07-29T13:37:24;2.38;;;1.13;;
58302;SDS011;44109;52.398;7.024;2023-07-29T13:39:51;1.60;;;1.10;;
58302;SDS011;44109;52.398;7.024;2023-07-29T13:42:19;7.00;;;1.45;;
58302;SDS011;44109;52.398;7.024;2023-07-29T13:44:46;1.77;;;0.93;;
58302;SDS011;44109;52.398;7.024;2023-07-29T13:47:14;3.45;;;1.80;;
58302;SDS011;44109;52.398;7.024;2023-07-29T13:49:43;2.30;;;1.40;;
58302;SDS011;44109;52.398;7.024;2023-07-29T13:52:10;2.22;;;1.88;;
58302;SDS011;44109;52.398;7.024;2023-07-29T13:54:39;1.40;;;0.95;;
58302;SDS011;44109;52.398;7.024;2023-07-29T13:57:07;2.22;;;1.13;;
58302;SDS011;44109;52.398;7.024;2023-07-29T13:59:36;2.38;;;1.38;;
58302;SDS011;44109;52.398;7.024;2023-07-29T14:02:04;3.85;;;1.33;;
58302;SDS011;44109;52.398;7.024;2023-07-29T14:04:32;2.22;;;1.35;;
58302;SDS011;44109;52.398;7.024;2023-07-29T14:07:03;2.42;;;1.00;;
58302;SDS011;44109;52.398;7.024;2023-07-29T14:09:32;1.08;;;0.88;;
58302;SDS011;44109;52.398;7.024;2023-07-29T14:12:00;2.38;;;1.13;;
58302;SDS011;44109;52.398;7.024;2023-07-29T14:14:28;1.38;;;0.38;;
58302;SDS011;44109;52.398;7.024;2023-07-29T14:16:55;0.93;;;0.65;;
58302;SDS011;44109;52.398;7.024;2023-07-29T14:19:23;0.75;;;0.50;;
58302;SDS011;44109;52.398;7.024;2023-07-29T14:21:51;0.60;;;0.40;;
58302;SDS011;44109;52.398;7.024;2023-07-29T14:24:20;0.65;;;0.47;;
58302;SDS011;44109;52.398;7.024;2023-07-29T14:26:48;1.08;;;0.70;;
58302;SDS011;44109;52.398;7.024;2023-07-29T14:29:16;0.17;;;0.10;;
58302;SDS011;44109;52.398;7.024;2023-07-29T14:31:43;0.75;;;0.43;;
58302;SDS011;44109;52.398;7.024;2023-07-29T14:34:11;0.85;;;0.50;;
58302;SDS011;44109;52.398;7.024;2023-07-29T14:36:38;1.20;;;0.38;;
58302;SDS011;44109;52.398;7.024;2023-07-29T14:39:07;0.50;;;0.40;;
58302;SDS011;44109;52.398;7.024;2023-07-29T14:41:36;0.55;;;0.22;;
58302;SDS011;44109;52.398;7.024;2023-07-29T14:44:03;0.57;;;0.40;;
58302;SDS011;44109;52.398;7.024;2023-07-29T14:46:31;0.20;;;0.20;;
58302;SDS011;44109;52.398;7.024;2023-07-29T14:48:59;0.40;;;0.32;;
58302;SDS011;44109;52.398;7.024;2023-07-29T14:51:26;0.65;;;0.38;;
58302;SDS011;44109;52.398;7.024;2023-07-29T14:53:54;0.63;;;0.30;;
58302;SDS011;44109;52.398;7.024;2023-07-29T14:56:22;0.30;;;0.22;;
58302;SDS011;44109;52.398;7.024;2023-07-29T14:58:51;1.00;;;0.60;;
58302;SDS011;44109;52.398;7.024;2023-07-29T15:01:18;0.50;;;0.30;;
58302;SDS011;44109;52.398;7.024;2023-07-29T15:03:46;1.45;;;0.60;;
58302;SDS011;44109;52.398;7.024;2023-07-29T15:06:13;1.27;;;0.88;;